Flight Track Log - Related Links

Times and Time Zones

All times are in EDT time to prevent confusion due to time zone crossing. See the CSJ405 flight status page for this flight to view local times or setup timezone preferences in your user account.

Time Position Orientation Groundspeed Altitude Reporting Facility
EDT Latitude Longitude Course Direction KTS MPH feet Rate Location/Type
Fri 05:01:16 AM 45.6667 -73.9833 180° South 80 92 1,500  Level Montreal Center
Fri 05:02:16 AM 45.6833 -73.9500 54° Northeast 70 81 2,600 1,050 Climbing Montreal Center
Fri 05:03:16 AM 45.6500 -73.9500 180° South 100 115 3,600 1,000 Climbing Montreal Center
Fri 05:04:16 AM 45.6333 -73.9500 180° South 110 127 4,600 1,050 Climbing Montreal Center
Fri 05:05:16 AM 45.6000 -73.9500 180° South 120 138 5,700 1,100 Climbing Montreal Center
Fri 05:06:00 AM 45.3937 -74.0145 180° South  Level Estimated
Fri 05:06:16 AM 45.5667 -73.9500 180° South 130 150 6,800  Level Montreal Center
Fri 05:07:16 AM 45.5333 -73.9667 199° South 130 150 7,700 950 Climbing Montreal Center
Fri 05:08:16 AM 45.4833 -73.9667 180° South 130 150 8,700 900 Climbing Montreal Center
Fri 05:09:16 AM 45.4500 -73.9333 145° Southeast 130 150 9,500 650 Climbing Montreal Center
Fri 05:10:16 AM 45.4167 -73.9333 180° South 140 161 10,000 250 Climbing Montreal Center
Fri 05:11:16 AM 45.3667 -73.9333 180° South 160 184 10,000  Level Montreal Center
Fri 05:12:16 AM 45.3333 -73.9500 199° South 160 184 10,000  Level Montreal Center
Fri 05:13:16 AM 45.2833 -73.9500 180° South 160 184 10,000  Level Montreal Center
Fri 05:14:16 AM 45.2333 -73.9500 180° South 160 184 10,000  Level Montreal Center
Fri 05:15:16 AM 45.2000 -73.9500 180° South 160 184 10,000  Level Montreal Center
Fri 05:16:16 AM 45.1500 -73.9333 167° South 160 184 10,000  Level Montreal Center
Fri 05:17:16 AM 45.1000 -73.9333 180° South 160 184 10,000  Level Montreal Center
Fri 05:18:16 AM 45.0500 -73.9333 180° South 160 184 10,000  Level Montreal Center
Fri 05:19:16 AM 45.0167 -73.9333 180° South 160 184 10,000  Level Montreal Center
Fri 05:20:16 AM 44.9667 -73.9333 180° South 170 196 10,000  Level Montreal Center
Fri 05:21:16 AM 44.9167 -73.9167 167° South 170 196 10,000  Level Montreal Center
Fri 05:22:16 AM 44.8667 -73.9167 180° South 170 196 10,000  Level Montreal Center
Fri 05:22:56 AM 44.8600 -73.9247 221° Southwest 172 198 10,000  Level Boston Center
Fri 05:24:20 AM 44.7978 -73.9203 177° South 172 198 10,000  Level Boston Center
Fri 05:25:20 AM 44.7394 -73.9189 179° South 172 198 10,000  Level Boston Center
Fri 05:26:20 AM 44.6956 -73.9178 179° South 177 204 10,000  Level Boston Center
Fri 05:27:20 AM 44.6456 -73.9136 177° South 177 204 10,000  Level Boston Center
Fri 05:28:20 AM 44.5978 -73.9094 176° South 177 204 10,000  Level Boston Center
Fri 05:29:20 AM 44.5519 -73.9083 179° South 177 204 10,000  Level Boston Center
Fri 05:30:20 AM 44.5083 -73.9042 176° South 177 204 10,000  Level Boston Center
Fri 05:31:20 AM 44.4561 -73.9031 179° South 177 204 10,000  Level Boston Center
Fri 05:32:20 AM 44.4061 -73.9017 179° South 177 204 10,000  Level Boston Center
Fri 05:33:20 AM 44.3583 -73.8978 177° South 177 204 10,000  Level Boston Center
Fri 05:34:20 AM 44.3083 -73.8964 179° South 177 204 10,000  Level Boston Center
Fri 05:35:20 AM 44.2606 -73.8925 177° South 177 204 10,000  Level Boston Center
Fri 05:36:44 AM 44.2042 -73.8911 179° South 177 204 10,000  Level Boston Center
Fri 05:37:44 AM 44.1439 -73.8867 177° South 177 204 10,000  Level Boston Center
Fri 05:38:44 AM 44.0961 -73.8797 174° South 177 204 10,000  Level Boston Center
Fri 05:39:44 AM 44.0503 -73.8814 181° South 182 209 10,000  Level Boston Center
Fri 05:40:44 AM 44.0022 -73.8803 179° South 177 204 10,000  Level Boston Center
Fri 05:41:44 AM 43.9522 -73.8761 177° South 177 204 10,000  Level Boston Center
Fri 05:42:44 AM 43.8961 -73.8719 177° South 183 211 10,000  Level Boston Center
Fri 05:43:44 AM 43.8461 -73.8708 179° South 177 204 10,000  Level Boston Center
Fri 05:44:44 AM 43.7939 -73.8697 179° South 177 204 10,000  Level Boston Center
Fri 05:45:44 AM 43.7442 -73.8656 177° South 177 204 10,000  Level Boston Center
Fri 05:46:56 AM 43.6942 -73.8614 177° South 177 204 10,000  Level Boston Center
Fri 05:47:56 AM 43.6358 -73.8572 177° South 177 204 10,000  Level Boston Center
Fri 05:48:56 AM 43.5858 -73.8533 177° South 182 209 10,000  Level Boston Center
Fri 05:49:48 AM 43.5400 -73.8550 182° South 181 208 10,000  Level Boston Center
Fri 05:50:43 AM 43.4942 -73.8567 182° South 183 211 10,000  Level Boston Center
Fri 05:51:43 AM 43.4442 -73.8500 174° South 182 209 10,000  Level Boston Center
Fri 05:52:44 AM 43.3942 -73.8458 177° South 182 209 10,000  Level Boston Center
Fri 05:53:45 AM 43.3422 -73.8447 179° South 184 212 10,000 -248 Level Boston Center
Fri 05:54:45 AM 43.2900 -73.8406 177° South 189 217 9,500 -496 Descending Boston Center
Fri 05:55:46 AM 43.2358 -73.8394 179° South 191 220 9,000 -595 Descending Boston Center
Fri 05:56:46 AM 43.1858 -73.8353 177° South 190 219 8,300 -645 Descending Boston Center
Fri 05:57:47 AM 43.1317 -73.8314 177° South 191 220 7,700 -492 Descending Boston Center
Fri 05:58:48 AM 43.0756 -73.8272 177° South 190 219 7,300 -446 Descending Boston Center
Fri 05:59:48 AM 43.0214 -73.8203 175° South 187 215 6,800 -744 Descending Boston Center
Fri 06:00:49 AM 42.9672 -73.8161 177° South 187 215 5,800 -1,091 Descending Boston Center
Fri 06:01:49 AM 42.9194 -73.8153 179° South 179 206 4,600 -1,190 Descending Boston Center
Fri 06:02:50 AM 42.8694 -73.8139 179° South 178 205 3,400 -1,279 Descending Boston Center
Fri 06:03:51 AM 42.8236 -73.8131 179° South 171 197 2,000 -1,240 Descending Boston Center
Fri 06:04:51 AM 42.7797 -73.8092 176° South 151 174 900 -1,100 Descending Boston Center
Fri 06:06:00 AM 42.7491 -73.8020 North  Level Estimated
Fri 06:13:00 AM 42.7491 -73.8020 North  Level Estimated
Fri 06:14:00 AM 42.7491 -73.8020 North  Level Estimated
Fri 06:15:00 AM 42.7491 -73.8020 North  Level Estimated

Login

Don't have an account? Register now (free) for customized features, flight alerts, and more!